createdAt,value
2024-01-07T00:01:58.762Z,100764.20
2024-01-07T00:04:26.929Z,100761.66
2024-01-07T00:06:55.053Z,100760.84
2024-01-07T00:09:23.163Z,100759.66
2024-01-07T00:11:52.911Z,100756.85
2024-01-07T00:14:20.920Z,100759.37
2024-01-07T00:16:48.917Z,100754.89
2024-01-07T00:19:17.157Z,100761.36
2024-01-07T00:21:45.244Z,100752.37
2024-01-07T00:24:13.341Z,100754.89
2024-01-07T00:26:41.803Z,100752.37
2024-01-07T00:29:09.830Z,100757.99
2024-01-07T00:31:37.966Z,100744.82
2024-01-07T00:34:08.059Z,100750.48
2024-01-07T00:36:36.154Z,100748.77
2024-01-07T00:39:04.301Z,100748.25
2024-01-07T00:41:35.263Z,100752.21
2024-01-07T00:44:03.335Z,100755.87
2024-01-07T00:46:35.422Z,100758.19
2024-01-07T00:49:03.572Z,100757.05
2024-01-07T00:51:31.634Z,100753.38
2024-01-07T00:53:59.709Z,100757.87
2024-01-07T00:56:30.776Z,100751.09
2024-01-07T00:58:58.776Z,100755.05
2024-01-07T01:01:27.005Z,100752.21
2024-01-07T01:03:55.428Z,100758.19
2024-01-07T01:06:23.672Z,100757.24
2024-01-07T01:08:51.937Z,100759.86
2024-01-07T01:11:20.010Z,100758.19
2024-01-07T01:13:48.406Z,100759.86
2024-01-07T01:16:16.359Z,100759.01
2024-01-07T01:18:44.469Z,100763.52
2024-01-07T01:21:12.606Z,100766.07
2024-01-07T01:23:40.630Z,100771.17
2024-01-07T01:26:08.718Z,100773.16
2024-01-07T01:28:36.712Z,100768.03
2024-01-07T01:31:04.977Z,100768.66
2024-01-07T01:33:33.231Z,100767.80
2024-01-07T01:36:01.304Z,100770.32
2024-01-07T01:38:29.416Z,100771.50
2024-01-07T01:40:57.577Z,100769.50
2024-01-07T01:43:29.182Z,100774.84
2024-01-07T01:45:58.076Z,100767.18
2024-01-07T01:48:26.557Z,100769.18
2024-01-07T01:50:56.277Z,100764.14
2024-01-07T01:53:24.435Z,100765.84
2024-01-07T01:55:52.452Z,100768.33
2024-01-07T01:58:20.563Z,100766.46
2024-01-07T02:00:48.662Z,100764.14
2024-01-07T02:03:16.907Z,100770.62
2024-01-07T02:05:45.146Z,100765.29
2024-01-07T02:08:13.239Z,100768.66
2024-01-07T02:10:43.211Z,100764.66
2024-01-07T02:13:11.588Z,100763.00
2024-01-07T02:15:39.743Z,100771.17
2024-01-07T02:18:07.891Z,100775.98
2024-01-07T02:20:35.910Z,100776.83
2024-01-07T02:23:05.245Z,100771.99
2024-01-07T02:25:39.662Z,100774.31
2024-01-07T02:28:08.164Z,100771.79
2024-01-07T02:30:36.467Z,100768.66
2024-01-07T02:33:06.341Z,100775.98
2024-01-07T02:35:34.531Z,100771.50
2024-01-07T02:38:02.646Z,100769.99
2024-01-07T02:40:30.709Z,100764.34
2024-01-07T02:42:59.227Z,100769.99
2024-01-07T02:45:27.289Z,100768.03
2024-01-07T02:47:55.432Z,100768.03
2024-01-07T02:50:23.589Z,100763.52
2024-01-07T02:52:51.663Z,100767.18
2024-01-07T02:55:19.837Z,100773.69
2024-01-07T02:57:47.877Z,100766.07
2024-01-07T03:00:16.289Z,100766.89
2024-01-07T03:02:44.371Z,100771.40
2024-01-07T03:05:12.535Z,100771.40
2024-01-07T03:07:41.909Z,100772.22
2024-01-07T03:10:10.348Z,100773.36
2024-01-07T03:12:38.546Z,100769.93
2024-01-07T03:15:08.400Z,100765.13
2024-01-07T03:17:36.538Z,100773.59
2024-01-07T03:20:04.661Z,100770.78
2024-01-07T03:22:32.675Z,100772.97
2024-01-07T03:25:00.806Z,100776.44
2024-01-07T03:27:28.925Z,100777.25
2024-01-07T03:29:56.945Z,100768.78
2024-01-07T03:32:24.964Z,100769.63
2024-01-07T03:34:53.117Z,100769.63
2024-01-07T03:37:21.258Z,100767.64
2024-01-07T03:39:49.653Z,100776.44
2024-01-07T03:42:17.715Z,100774.73
2024-01-07T03:44:45.802Z,100778.13
2024-01-07T03:47:13.831Z,100778.13
2024-01-07T03:49:42.199Z,100780.62
2024-01-07T03:52:10.553Z,100774.96
2024-01-07T03:54:38.607Z,100777.52
2024-01-07T03:57:06.891Z,100772.97
2024-01-07T03:59:34.933Z,100776.44
2024-01-07T04:02:02.971Z,100772.48
2024-01-07T04:04:31.047Z,100771.59
2024-01-07T04:06:59.112Z,100776.14
2024-01-07T04:09:27.275Z,100770.16
2024-01-07T04:11:55.368Z,100777.81
2024-01-07T04:14:23.376Z,100776.14
2024-01-07T04:16:51.457Z,100770.88
2024-01-07T04:19:19.571Z,100781.93
2024-01-07T04:21:50.538Z,100776.60
2024-01-07T04:24:18.738Z,100782.26
2024-01-07T04:26:46.712Z,100787.06
2024-01-07T04:29:14.755Z,100780.26
2024-01-07T04:31:42.879Z,100785.07
2024-01-07T04:34:11.158Z,100790.40
2024-01-07T04:36:39.261Z,100785.30
2024-01-07T04:39:07.370Z,100788.11
2024-01-07T04:41:35.453Z,100790.40
2024-01-07T04:44:03.545Z,100793.24
2024-01-07T04:46:31.617Z,100789.91
2024-01-07T04:48:59.672Z,100791.57
2024-01-07T04:51:27.719Z,100796.05
2024-01-07T04:53:55.747Z,100798.90
2024-01-07T04:56:23.783Z,100796.05
2024-01-07T04:58:51.749Z,100794.38
2024-01-07T05:01:19.808Z,100801.19
2024-01-07T05:03:47.943Z,100796.38
2024-01-07T05:06:18.374Z,100799.75
2024-01-07T05:08:46.446Z,100802.56
2024-01-07T05:11:14.514Z,100805.08
2024-01-07T05:13:42.581Z,100811.06
2024-01-07T05:16:10.668Z,100809.06
2024-01-07T05:18:38.976Z,100811.55
2024-01-07T05:21:08.421Z,100812.73
2024-01-07T05:23:36.765Z,100815.54
2024-01-07T05:26:04.973Z,100811.55
2024-01-07T05:28:32.962Z,100815.48
2024-01-07T05:31:04.219Z,100817.99
2024-01-07T05:33:32.389Z,100817.14
2024-01-07T05:36:00.537Z,100826.46
2024-01-07T05:38:31.316Z,100822.47
2024-01-07T05:41:00.825Z,100818.52
2024-01-07T05:43:28.983Z,100826.69
2024-01-07T05:45:57.095Z,100829.50
2024-01-07T05:48:25.517Z,100830.35
2024-01-07T05:50:53.746Z,100832.34
2024-01-07T05:53:21.802Z,100830.05
2024-01-07T05:55:50.070Z,100827.84
2024-01-07T05:58:18.144Z,100832.12
2024-01-07T06:00:46.198Z,100840.00
2024-01-07T06:03:14.313Z,100836.53
2024-01-07T06:05:45.433Z,100839.38
2024-01-07T06:08:13.541Z,100840.29
2024-01-07T06:10:42.445Z,100840.29
2024-01-07T06:13:10.609Z,100843.43
2024-01-07T06:15:38.746Z,100843.95
2024-01-07T06:18:09.598Z,100852.75
2024-01-07T06:20:37.642Z,100846.80
2024-01-07T06:23:05.846Z,100846.24
2024-01-07T06:25:33.875Z,100855.56
2024-01-07T06:28:01.994Z,100845.95
2024-01-07T06:30:30.206Z,100853.27
2024-01-07T06:32:58.404Z,100855.56
2024-01-07T06:35:26.473Z,100864.59
2024-01-07T06:37:54.449Z,100856.93
2024-01-07T06:40:22.668Z,100865.73
2024-01-07T06:42:53.871Z,100860.92
2024-01-07T06:45:22.094Z,100869.39
2024-01-07T06:47:50.164Z,100867.40
2024-01-07T06:50:19.070Z,100869.91
2024-01-07T06:52:47.166Z,100875.57
2024-01-07T06:55:15.260Z,100877.56
2024-01-07T06:57:43.335Z,100880.70
2024-01-07T07:00:11.709Z,100884.37
2024-01-07T07:02:39.778Z,100881.55
2024-01-07T07:05:08.090Z,100886.03
2024-01-07T07:07:36.206Z,100880.70
2024-01-07T07:10:04.965Z,100880.70
2024-01-07T07:12:33.087Z,100881.55
2024-01-07T07:15:01.138Z,100886.36
2024-01-07T07:17:29.112Z,100887.27
2024-01-07T07:19:57.522Z,100887.80
2024-01-07T07:22:25.681Z,100890.32
2024-01-07T07:24:54.686Z,100885.54
2024-01-07T07:27:23.571Z,100896.82
2024-01-07T07:29:51.902Z,100893.45
2024-01-07T07:32:20.577Z,100904.15
2024-01-07T07:34:49.661Z,100901.63
2024-01-07T07:37:20.470Z,100901.40
2024-01-07T07:39:49.270Z,100900.88
2024-01-07T07:42:18.400Z,100903.10
2024-01-07T07:44:46.456Z,100905.65
2024-01-07T07:47:14.590Z,100908.82
2024-01-07T07:49:42.964Z,100917.84
2024-01-07T07:52:16.745Z,100916.96
2024-01-07T07:54:44.917Z,100920.66
2024-01-07T07:57:12.950Z,100922.95
2024-01-07T07:59:40.962Z,100918.66
2024-01-07T08:02:09.051Z,100916.67
2024-01-07T08:04:39.733Z,100918.08
2024-01-07T08:07:07.862Z,100918.34
2024-01-07T08:09:36.019Z,100921.51
2024-01-07T08:12:05.412Z,100921.51
2024-01-07T08:14:34.078Z,100929.65
2024-01-07T08:17:02.175Z,100916.67
2024-01-07T08:19:30.252Z,100927.91
2024-01-07T08:21:59.004Z,100927.39
2024-01-07T08:24:27.127Z,100929.06
2024-01-07T08:26:55.235Z,100931.05
2024-01-07T08:29:23.215Z,100935.24
2024-01-07T08:31:51.375Z,100936.42
2024-01-07T08:34:22.095Z,100940.08
2024-01-07T08:36:50.308Z,100943.12
2024-01-07T08:39:18.428Z,100942.27
2024-01-07T08:41:46.578Z,100959.24
2024-01-07T08:44:14.617Z,100944.27
2024-01-07T08:46:42.757Z,100945.41
2024-01-07T08:49:11.037Z,100947.70
2024-01-07T08:51:40.129Z,100947.11
2024-01-07T08:54:08.261Z,100952.77
2024-01-07T08:56:36.345Z,100948.77
2024-01-07T08:59:04.686Z,100958.09
2024-01-07T09:01:32.836Z,100956.95
2024-01-07T09:04:01.031Z,100962.09
2024-01-07T09:06:29.348Z,100963.52
2024-01-07T09:08:57.509Z,100966.63
2024-01-07T09:11:26.336Z,100968.33
2024-01-07T09:13:54.558Z,100973.66
2024-01-07T09:16:22.646Z,100977.95
2024-01-07T09:18:50.801Z,100978.20
2024-01-07T09:21:18.911Z,100973.37
2024-01-07T09:23:47.352Z,100983.53
2024-01-07T09:26:15.334Z,100982.16
2024-01-07T09:28:45.209Z,100986.73
2024-01-07T09:31:13.289Z,100987.30
2024-01-07T09:33:41.575Z,100991.25
2024-01-07T09:36:15.990Z,100990.40
2024-01-07T09:38:56.412Z,100994.06
2024-01-07T09:41:24.487Z,101000.27
2024-01-07T09:43:54.336Z,100994.39
2024-01-07T09:46:22.517Z,100997.43
2024-01-07T09:48:50.709Z,100998.90
2024-01-07T09:51:18.807Z,100995.86
2024-01-07T09:53:47.492Z,100994.13
2024-01-07T09:56:28.372Z,100993.93
2024-01-07T09:58:56.533Z,100992.23
2024-01-07T10:01:24.798Z,100998.21
2024-01-07T10:03:52.971Z,100996.71
2024-01-07T10:06:21.984Z,100997.40
2024-01-07T10:08:50.038Z,101003.67
2024-01-07T10:11:18.309Z,100995.47
2024-01-07T10:13:54.434Z,100993.57
2024-01-07T10:16:22.579Z,101000.66
2024-01-07T10:18:50.725Z,101000.66
2024-01-07T10:21:18.784Z,100998.09
2024-01-07T10:23:46.888Z,100994.75
2024-01-07T10:26:23.471Z,100992.52
2024-01-07T10:28:55.804Z,101003.58
2024-01-07T10:31:23.988Z,100999.39
2024-01-07T10:33:52.220Z,101000.21
2024-01-07T10:36:20.390Z,101001.91
2024-01-07T10:38:48.554Z,100998.51
2024-01-07T10:41:17.961Z,101003.34
2024-01-07T10:43:46.056Z,100997.46
2024-01-07T10:46:14.201Z,100998.05
2024-01-07T10:48:50.435Z,100990.73
2024-01-07T10:51:18.486Z,100998.05
2024-01-07T10:53:46.817Z,100995.24
2024-01-07T10:56:14.818Z,101000.05
2024-01-07T10:58:42.928Z,100995.80
2024-01-07T11:01:11.433Z,100998.90
2024-01-07T11:04:06.599Z,100984.84
2024-01-07T11:06:57.007Z,100993.02
2024-01-07T11:09:53.830Z,100993.87
2024-01-07T11:12:21.924Z,100984.25
2024-01-07T11:14:54.195Z,100992.43
2024-01-07T11:17:34.451Z,100986.15
2024-01-07T11:20:02.591Z,100988.44
2024-01-07T11:22:30.833Z,100989.59
2024-01-07T11:25:03.210Z,100985.92
2024-01-07T11:27:33.799Z,100982.78
2024-01-07T11:30:09.225Z,100990.66
2024-01-07T11:32:37.539Z,100976.21
2024-01-07T11:35:06.973Z,100988.70
2024-01-07T11:37:35.109Z,100984.48
2024-01-07T11:40:06.582Z,100985.07
2024-01-07T11:42:35.097Z,100974.90
2024-01-07T11:45:03.181Z,100978.59
2024-01-07T11:47:31.325Z,100980.27
2024-01-07T11:49:59.514Z,100980.03
2024-01-07T11:52:27.696Z,100980.55
2024-01-07T11:54:55.798Z,100988.21
2024-01-07T11:57:24.012Z,100983.37
2024-01-07T11:59:52.064Z,100979.71
2024-01-07T12:02:21.867Z,100981.41
2024-01-07T12:04:49.945Z,100979.71
2024-01-07T12:07:19.157Z,100981.41
2024-01-07T12:09:47.238Z,100980.27
2024-01-07T12:12:15.347Z,100979.94
2024-01-07T12:14:43.404Z,100973.17
2024-01-07T12:17:14.105Z,100981.93
2024-01-07T12:19:43.195Z,100982.55
2024-01-07T12:22:12.537Z,100988.77
2024-01-07T12:24:40.587Z,100997.53
2024-01-07T12:27:09.338Z,100986.54
2024-01-07T12:29:37.348Z,100997.59
2024-01-07T12:32:05.636Z,100994.55
2024-01-07T12:34:34.341Z,100990.95
2024-01-07T12:37:04.514Z,100995.50
2024-01-07T12:39:32.711Z,100989.62
2024-01-07T12:42:00.970Z,100994.42
2024-01-07T12:44:31.688Z,100997.59
2024-01-07T12:46:59.665Z,100997.59
2024-01-07T12:49:27.873Z,101006.06
2024-01-07T12:51:59.094Z,100999.85
2024-01-07T12:54:27.137Z,101005.18
2024-01-07T12:56:55.335Z,101012.02
2024-01-07T12:59:23.384Z,101008.94
2024-01-07T13:01:53.525Z,101006.95
2024-01-07T13:04:22.060Z,101015.74
2024-01-07T13:06:50.606Z,101020.84
2024-01-07T13:09:18.850Z,101017.80
2024-01-07T13:11:46.995Z,101022.28
2024-01-07T13:14:15.059Z,101021.20
2024-01-07T13:16:43.152Z,101031.14
2024-01-07T13:19:13.246Z,101029.15
2024-01-07T13:21:43.014Z,101033.76
2024-01-07T13:24:11.325Z,101032.68
2024-01-07T13:26:39.896Z,101038.10
2024-01-07T13:29:07.977Z,101028.75
2024-01-07T13:31:36.169Z,101040.06
2024-01-07T13:34:04.631Z,101040.91
2024-01-07T13:36:32.870Z,101046.57
2024-01-07T13:39:00.941Z,101043.76
2024-01-07T13:41:31.494Z,101053.57
2024-01-07T13:44:00.054Z,101042.84
2024-01-07T13:46:30.194Z,101047.65
2024-01-07T13:48:59.367Z,101056.15
2024-01-07T13:51:27.694Z,101057.59
2024-01-07T13:53:55.794Z,101053.93
2024-01-07T13:56:24.002Z,101059.06
2024-01-07T13:58:52.647Z,101063.02
2024-01-07T14:01:20.767Z,101065.90
2024-01-07T14:03:49.071Z,101067.04
2024-01-07T14:06:17.610Z,101076.33
2024-01-07T14:08:45.764Z,101076.39
2024-01-07T14:11:13.822Z,101080.91
2024-01-07T14:13:41.929Z,101089.17
2024-01-07T14:16:10.123Z,101087.48
2024-01-07T14:18:38.152Z,101091.76
2024-01-07T14:21:06.324Z,101096.30
2024-01-07T14:23:36.179Z,101093.27
2024-01-07T14:26:04.670Z,101101.73
2024-01-07T14:28:32.819Z,101104.25
2024-01-07T14:31:02.765Z,101105.39
2024-01-07T14:33:31.023Z,101106.80
2024-01-07T14:35:59.164Z,101115.01
2024-01-07T14:38:28.071Z,101111.64
2024-01-07T14:40:56.085Z,101113.86
2024-01-07T14:43:24.226Z,101106.83
2024-01-07T14:45:52.386Z,101119.29
2024-01-07T14:48:20.478Z,101117.30
2024-01-07T14:50:50.238Z,101120.43
2024-01-07T14:53:18.341Z,101115.63
2024-01-07T14:55:46.392Z,101127.76
2024-01-07T14:58:14.539Z,101130.05
2024-01-07T15:00:42.961Z,101125.53
2024-01-07T15:03:11.118Z,101130.34
2024-01-07T15:05:39.341Z,101137.96
2024-01-07T15:08:07.389Z,101134.82
2024-01-07T15:10:35.937Z,101146.10
2024-01-07T15:13:11.387Z,101141.91
2024-01-07T15:15:45.232Z,101148.68
2024-01-07T15:18:14.584Z,101141.91
2024-01-07T15:20:42.606Z,101149.27
2024-01-07T15:23:10.604Z,101153.26
2024-01-07T15:25:38.783Z,101160.06
2024-01-07T15:28:07.197Z,101161.20
2024-01-07T15:30:38.312Z,101171.08
2024-01-07T15:33:06.542Z,101175.59
2024-01-07T15:35:34.714Z,101179.55
2024-01-07T15:38:02.761Z,101178.70
2024-01-07T15:40:32.953Z,101177.00
2024-01-07T15:43:01.951Z,101190.27
2024-01-07T15:45:30.018Z,101185.79
2024-01-07T15:47:58.596Z,101183.27
2024-01-07T15:50:26.665Z,101190.86
2024-01-07T15:52:54.681Z,101188.60
2024-01-07T15:55:22.871Z,101186.12
2024-01-07T15:57:50.950Z,101194.00
2024-01-07T16:00:19.312Z,101196.55
2024-01-07T16:02:48.959Z,101194.06
2024-01-07T16:05:17.353Z,101204.20
2024-01-07T16:07:45.409Z,101198.28
2024-01-07T16:10:14.206Z,101213.23
2024-01-07T16:12:42.676Z,101215.80
2024-01-07T16:15:14.203Z,101215.22
2024-01-07T16:17:45.237Z,101221.17
2024-01-07T16:20:14.301Z,101218.62
2024-01-07T16:22:44.750Z,101217.21
2024-01-07T16:25:15.820Z,101221.70
2024-01-07T16:27:43.965Z,101228.16
2024-01-07T16:30:12.709Z,101230.72
2024-01-07T16:32:40.822Z,101234.97
2024-01-07T16:35:12.122Z,101233.56
2024-01-07T16:37:42.986Z,101241.18
2024-01-07T16:40:14.411Z,101240.92
2024-01-07T16:42:43.109Z,101245.73
2024-01-07T16:45:11.378Z,101242.32
2024-01-07T16:47:39.495Z,101253.34
2024-01-07T16:50:21.003Z,101250.53
2024-01-07T16:52:52.535Z,101265.77
2024-01-07T16:55:20.589Z,101264.36
2024-01-07T16:57:48.664Z,101266.91
2024-01-07T17:00:17.860Z,101260.96
2024-01-07T17:02:47.039Z,101266.91
2024-01-07T17:05:15.626Z,101268.02
2024-01-07T17:07:43.852Z,101268.32
2024-01-07T17:10:12.470Z,101263.51
2024-01-07T17:12:40.454Z,101276.23
2024-01-07T17:15:08.673Z,101279.60
2024-01-07T17:17:37.796Z,101279.04
2024-01-07T17:20:06.234Z,101283.26
2024-01-07T17:22:34.319Z,101279.34
2024-01-07T17:25:02.361Z,101286.66
2024-01-07T17:27:30.570Z,101293.43
2024-01-07T17:29:58.603Z,101294.54
2024-01-07T17:32:27.325Z,101291.73
2024-01-07T17:34:58.131Z,101295.13
2024-01-07T17:37:28.516Z,101292.58
2024-01-07T17:39:57.140Z,101299.61
2024-01-07T17:42:26.373Z,101295.95
2024-01-07T17:44:54.517Z,101299.05
2024-01-07T17:47:22.824Z,101306.12
2024-01-07T17:49:50.912Z,101309.22
2024-01-07T17:52:19.043Z,101308.08
2024-01-07T17:54:47.113Z,101305.56
2024-01-07T17:57:17.957Z,101312.30
2024-01-07T17:59:45.974Z,101312.00
2024-01-07T18:02:15.179Z,101317.95
2024-01-07T18:04:43.544Z,101319.32
2024-01-07T18:07:17.034Z,101316.22
2024-01-07T18:09:45.294Z,101318.51
2024-01-07T18:12:17.791Z,101321.02
2024-01-07T18:14:46.801Z,101325.50
2024-01-07T18:17:14.953Z,101330.60
2024-01-07T18:19:43.249Z,101332.01
2024-01-07T18:22:11.365Z,101331.16
2024-01-07T18:24:41.114Z,101341.59
2024-01-07T18:27:09.176Z,101332.83
2024-01-07T18:29:37.254Z,101339.59
2024-01-07T18:32:09.797Z,101352.55
2024-01-07T18:34:41.144Z,101347.21
2024-01-07T18:37:09.268Z,101348.36
2024-01-07T18:39:38.826Z,101344.66
2024-01-07T18:42:07.212Z,101353.10
2024-01-07T18:44:35.283Z,101359.28
2024-01-07T18:47:03.391Z,101358.73
2024-01-07T18:49:34.461Z,101359.84
2024-01-07T18:52:02.556Z,101363.50
2024-01-07T18:54:30.701Z,101365.75
2024-01-07T18:56:58.751Z,101369.97
2024-01-07T18:59:26.848Z,101375.30
2024-01-07T19:01:55.085Z,101373.89
2024-01-07T19:04:23.227Z,101373.05
2024-01-07T19:06:51.569Z,101376.70
2024-01-07T19:09:19.790Z,101377.82
2024-01-07T19:11:50.984Z,101379.81
2024-01-07T19:14:19.392Z,101378.96
2024-01-07T19:16:48.271Z,101376.15
2024-01-07T19:19:17.169Z,101378.38
2024-01-07T19:21:47.606Z,101384.00
2024-01-07T19:24:15.727Z,101385.70
2024-01-07T19:26:45.646Z,101383.77
2024-01-07T19:29:13.903Z,101390.21
2024-01-07T19:31:44.557Z,101397.80
2024-01-07T19:34:12.678Z,101398.65
2024-01-07T19:36:43.526Z,101397.24
2024-01-07T19:39:13.411Z,101404.86
2024-01-07T19:41:41.821Z,101397.50
2024-01-07T19:44:09.913Z,101405.67
2024-01-07T19:46:38.178Z,101408.78
2024-01-07T19:49:08.413Z,101405.97
2024-01-07T19:51:36.629Z,101416.37
2024-01-07T19:54:04.691Z,101401.42
2024-01-07T19:56:32.925Z,101413.81
2024-01-07T19:59:01.149Z,101409.86
2024-01-07T20:01:29.265Z,101414.96
2024-01-07T20:03:57.468Z,101417.22
2024-01-07T20:06:26.551Z,101417.22
2024-01-07T20:08:55.213Z,101420.03
2024-01-07T20:11:26.130Z,101412.67
2024-01-07T20:13:54.333Z,101409.86
2024-01-07T20:16:22.772Z,101414.11
2024-01-07T20:18:53.387Z,101417.18
2024-01-07T20:21:25.787Z,101417.18
2024-01-07T20:24:01.947Z,101422.52
2024-01-07T20:26:33.109Z,101422.77
2024-01-07T20:29:03.532Z,101422.52
2024-01-07T20:31:31.634Z,101428.70
2024-01-07T20:34:00.253Z,101428.40
2024-01-07T20:36:28.554Z,101426.44
2024-01-07T20:38:56.732Z,101419.11
2024-01-07T20:41:25.086Z,101423.63
2024-01-07T20:43:53.953Z,101426.44
2024-01-07T20:46:22.657Z,101432.06
2024-01-07T20:48:51.105Z,101430.36
2024-01-07T20:51:19.385Z,101419.67
2024-01-07T20:53:47.559Z,101428.62
2024-01-07T20:56:15.688Z,101432.81
2024-01-07T20:58:43.769Z,101428.86
2024-01-07T21:01:11.871Z,101435.07
2024-01-07T21:03:40.020Z,101433.40
2024-01-07T21:06:08.394Z,101440.70
2024-01-07T21:08:37.657Z,101437.88
2024-01-07T21:11:07.254Z,101434.55
2024-01-07T21:13:35.997Z,101433.95
2024-01-07T21:16:05.226Z,101439.91
2024-01-07T21:18:33.555Z,101441.28
2024-01-07T21:21:03.446Z,101438.77
2024-01-07T21:23:31.573Z,101439.61
2024-01-07T21:26:00.328Z,101445.23
2024-01-07T21:28:29.055Z,101454.23
2024-01-07T21:30:57.223Z,101450.57
2024-01-07T21:33:25.777Z,101459.27
2024-01-07T21:35:53.975Z,101453.12
2024-01-07T21:38:22.221Z,101452.56
2024-01-07T21:40:56.127Z,101452.56
2024-01-07T21:43:25.130Z,101454.00
2024-01-07T21:45:53.552Z,101455.11
2024-01-07T21:48:21.659Z,101457.07
2024-01-07T21:50:49.805Z,101450.60
2024-01-07T21:53:18.473Z,101456.78
2024-01-07T21:55:46.561Z,101449.20
2024-01-07T21:58:14.826Z,101450.27
2024-01-07T22:00:45.283Z,101452.01
2024-01-07T22:03:13.661Z,101457.04
2024-01-07T22:05:41.918Z,101462.66
2024-01-07T22:08:10.223Z,101462.66
2024-01-07T22:10:38.315Z,101466.33
2024-01-07T22:13:06.389Z,101455.38
2024-01-07T22:15:34.871Z,101461.00
2024-01-07T22:18:03.184Z,101459.85
2024-01-07T22:20:31.313Z,101464.07
2024-01-07T22:22:59.548Z,101469.40
2024-01-07T22:25:27.626Z,101461.75
2024-01-07T22:27:55.719Z,101464.85
2024-01-07T22:30:23.784Z,101467.37
2024-01-07T22:32:52.059Z,101466.23
2024-01-07T22:35:20.590Z,101469.04
2024-01-07T22:37:51.840Z,101479.70
2024-01-07T22:40:19.918Z,101478.85
2024-01-07T22:42:47.945Z,101480.81
2024-01-07T22:45:16.177Z,101494.02
2024-01-07T22:47:44.377Z,101482.74
2024-01-07T22:50:12.768Z,101481.04
2024-01-07T22:52:41.458Z,101490.88
2024-01-07T22:55:09.937Z,101491.73
2024-01-07T22:57:38.261Z,101482.15
2024-01-07T23:00:08.102Z,101483.52
2024-01-07T23:02:36.147Z,101486.11
2024-01-07T23:05:04.355Z,101477.34
2024-01-07T23:09:58.447Z,101484.93
2024-01-07T23:12:27.702Z,101497.29
2024-01-07T23:14:55.858Z,101492.81
2024-01-07T23:17:26.569Z,101492.52
2024-01-07T23:19:55.138Z,101493.63
2024-01-07T23:22:23.755Z,101496.99
2024-01-07T23:24:52.024Z,101502.33
2024-01-07T23:27:20.067Z,101503.41
2024-01-07T23:29:48.189Z,101502.55
2024-01-07T23:32:16.312Z,101517.17
2024-01-07T23:34:44.555Z,101514.36
2024-01-07T23:37:12.573Z,101518.54
2024-01-07T23:39:40.783Z,101515.70
2024-01-07T23:42:08.818Z,101518.80
2024-01-07T23:44:36.918Z,101516.58
2024-01-07T23:47:05.081Z,101520.24
2024-01-07T23:49:33.286Z,101530.64
2024-01-07T23:52:01.479Z,101521.35
2024-01-07T23:54:30.288Z,101521.87
2024-01-07T23:56:58.393Z,101520.47
2024-01-07T23:59:27.053Z,101525.51
